^^
Saratoga-Weather Station Historical Data
Daily Summary for July 8, 2020 Units:  English    Metric   Both
Daily Weekly Monthly Yearly Custom
  High: Low: Average:
Temperature: 75.9 °F 46.2 °F 61.2 °F
Dew Point: 48.2 °F 38.1 °F 43.5 °F
Humidity: 88% 27% 57%
Wind Speed: 7mph 0mph 1.1mph
Wind Gust: 9mph - -
Wind- - SE
Pressure: 30.3 in 30.2 in -
Precipitation: 0 in    
Historical Graphs
 
 
Tabular Data for July 8, 2020
Time Temperature Dew Point Pressure Wind Wind Speed Wind Gust Humidity Rainfall Rate (Hourly) solar
00:02 55.2 °F 42.8 °F 30.3 in Calm     63% 0 in 0 W/m2
00:07 55 °F 42.6 °F 30.3 in Calm   1 mph 63% 0 in 0 W/m2
00:12 55.2 °F 42.8 °F 30.3 in Calm   3 mph 63% 0 in 0 W/m2
00:17 55.8 °F 42.4 °F 30.3 in Calm     61% 0 in 0 W/m2
00:22 56.1 °F 43.3 °F 30.3 in Calm     62% 0 in 0 W/m2
00:28 55.9 °F 43.5 °F 30.3 in Calm     63% 0 in 0 W/m2
00:33 55.8 °F 43.3 °F 30.3 in Calm     63% 0 in 0 W/m2
00:38 55.6 °F 43.2 °F 30.3 in Calm     63% 0 in 0 W/m2
00:43 55.2 °F 43.3 °F 30.3 in Calm     64% 0 in 0 W/m2
00:48 55 °F 43.5 °F 30.3 in Calm     65% 0 in 0 W/m2
00:53 54.9 °F 43.7 °F 30.3 in Calm     66% 0 in 0 W/m2
00:58 54.7 °F 43.5 °F 30.3 in Calm     66% 0 in 0 W/m2
01:03 54.5 °F 43.3 °F 30.3 in SW 0.9 mph 1 mph 66% 0 in 0 W/m2
01:08 54.3 °F 43.2 °F 30.3 in Calm     66% 0 in 0 W/m2
01:13 54.3 °F 43.5 °F 30.3 in Calm     67% 0 in 0 W/m2
01:18 54.1 °F 43.3 °F 30.3 in SW 0.9 mph 2 mph 67% 0 in 0 W/m2
01:23 54.1 °F 43.3 °F 30.3 in SW 0.9 mph 2 mph 67% 0 in 0 W/m2
01:28 54.1 °F 43.3 °F 30.3 in SW 0.9 mph 2 mph 67% 0 in 0 W/m2
01:33 54.1 °F 43.3 °F 30.3 in SW 0.9 mph 1 mph 67% 0 in 0 W/m2
01:39 54.1 °F 43.9 °F 30.3 in SW 0.9 mph 1 mph 68% 0 in 0 W/m2
01:44 54.1 °F 43.3 °F 30.3 in SW 0.9 mph 1 mph 67% 0 in 0 W/m2
01:49 54.1 °F 43.9 °F 30.3 in SW 0.9 mph 2 mph 68% 0 in 0 W/m2
01:54 54 °F 43.7 °F 30.3 in Calm   1 mph 68% 0 in 0 W/m2
01:59 54 °F 44.1 °F 30.3 in Calm   2 mph 69% 0 in 0 W/m2
02:04 54 °F 44.1 °F 30.3 in SW 0.9 mph 1 mph 69% 0 in 0 W/m2
02:09 54 °F 44.4 °F 30.3 in Calm     70% 0 in 0 W/m2
02:14 54 °F 44.4 °F 30.3 in SW 0.9 mph 1 mph 70% 0 in 0 W/m2
02:19 54 °F 44.4 °F 30.3 in SW 0.9 mph 1 mph 70% 0 in 0 W/m2
02:24 54 °F 44.4 °F 30.3 in Calm     70% 0 in 0 W/m2
02:29 53.8 °F 44.6 °F 30.3 in Calm     71% 0 in 0 W/m2
02:34 53.6 °F 44.4 °F 30.3 in SW 0.9 mph 1 mph 71% 0 in 0 W/m2
02:39 53.4 °F 44.2 °F 30.3 in Calm     71% 0 in 0 W/m2
02:44 53.2 °F 44.4 °F 30.3 in Calm     72% 0 in 0 W/m2
02:49 53.1 °F 44.2 °F 30.3 in Calm     72% 0 in 0 W/m2
02:54 53.1 °F 44.6 °F 30.3 in Calm     73% 0 in 0 W/m2
02:59 53.1 °F 44.6 °F 30.3 in SW 0.9 mph 1 mph 73% 0 in 0 W/m2
03:04 52.9 °F 44.4 °F 30.3 in SW 2 mph 2 mph 73% 0 in 0 W/m2
03:09 52.7 °F 44.6 °F 30.3 in Calm   1 mph 74% 0 in 0 W/m2
03:14 52.5 °F 44.1 °F 30.3 in Calm     73% 0 in 0 W/m2
03:19 52.3 °F 44.2 °F 30.3 in Calm     74% 0 in 0 W/m2
03:24 52.2 °F 44.4 °F 30.3 in Calm     75% 0 in 0 W/m2
03:29 52.2 °F 44.4 °F 30.3 in SW 2 mph 2 mph 75% 0 in 0 W/m2
03:34 52 °F 44.2 °F 30.3 in Calm   1 mph 75% 0 in 0 W/m2
03:39 51.8 °F 44.4 °F 30.3 in SW 0.9 mph 1 mph 76% 0 in 0 W/m2
03:44 51.8 °F 44.4 °F 30.3 in Calm     76% 0 in 0 W/m2
03:49 51.8 °F 44.4 °F 30.3 in Calm   2 mph 76% 0 in 0 W/m2
03:54 52 °F 44.6 °F 30.3 in Calm   1 mph 76% 0 in 0 W/m2
03:59 51.8 °F 44.4 °F 30.3 in SW 0.9 mph 2 mph 76% 0 in 0 W/m2
04:04 51.6 °F 44.2 °F 30.3 in SW 0.9 mph 1 mph 76% 0 in 0 W/m2
04:09 51.4 °F 44.4 °F 30.3 in Calm   2 mph 77% 0 in 0 W/m2
04:14 51.4 °F 44.4 °F 30.3 in SW 0.9 mph 1 mph 77% 0 in 0 W/m2
04:19 51.3 °F 44.6 °F 30.3 in Calm   1 mph 78% 0 in 0 W/m2
04:24 51.3 °F 44.6 °F 30.3 in SW 0.9 mph 2 mph 78% 0 in 0 W/m2
04:29 51.1 °F 44.4 °F 30.3 in SW 0.9 mph 1 mph 78% 0 in 0 W/m2
04:34 50.9 °F 44.2 °F 30.3 in Calm     78% 0 in 0 W/m2
04:39 50.7 °F 44.1 °F 30.3 in Calm     78% 0 in 0 W/m2
04:44 50.5 °F 44.2 °F 30.3 in Calm     79% 0 in 0 W/m2
04:49 50.4 °F 44.1 °F 30.3 in Calm   1 mph 79% 0 in 0 W/m2
04:55 50.2 °F 44.2 °F 30.3 in Calm     80% 0 in 0 W/m2
05:00 49.8 °F 43.9 °F 30.3 in Calm   1 mph 80% 0 in 0 W/m2
05:05 49.6 °F 43.7 °F 30.3 in Calm     80% 0 in 0 W/m2
05:10 49.5 °F 43.9 °F 30.3 in Calm     81% 0 in 0 W/m2
05:15 49.3 °F 43.7 °F 30.3 in Calm     81% 0 in 0 W/m2
05:20 49.3 °F 44.1 °F 30.3 in Calm   1 mph 82% 0 in 0 W/m2
05:25 49.1 °F 43.9 °F 30.3 in Calm     82% 0 in 0 W/m2
05:30 49.1 °F 43.9 °F 30.3 in Calm     82% 0 in 0 W/m2
05:35 48.9 °F 43.7 °F 30.3 in Calm     82% 0 in 0 W/m2
05:40 48.9 °F 43.7 °F 30.3 in Calm   1 mph 82% 0 in 0 W/m2
05:45 48.9 °F 44.1 °F 30.3 in SW 0.9 mph 2 mph 83% 0 in 0 W/m2
05:50 48.9 °F 44.1 °F 30.3 in Calm     83% 0 in 0 W/m2
05:55 48.7 °F 43.9 °F 30.3 in Calm     83% 0 in 0 W/m2
06:00 48.7 °F 43.9 °F 30.3 in Calm     83% 0 in 0 W/m2
06:05 48.7 °F 43.5 °F 30.3 in Calm     82% 0 in 0 W/m2
06:10 48.6 °F 43.3 °F 30.3 in Calm     82% 0 in 0 W/m2
06:15 48.4 °F 43.5 °F 30.3 in Calm     83% 0 in 0 W/m2
06:20 48.2 °F 43.3 °F 30.3 in Calm     83% 0 in 0 W/m2
06:25 48 °F 43.2 °F 30.3 in Calm     83% 0 in 0 W/m2
06:30 48 °F 43.3 °F 30.3 in Calm     84% 0 in 0 W/m2
06:35 47.8 °F 43.2 °F 30.3 in Calm     84% 0 in 0 W/m2
06:40 47.7 °F 43 °F 30.3 in Calm     84% 0 in 0 W/m2
06:45 47.5 °F 42.8 °F 30.3 in Calm     84% 0 in 0 W/m2
06:50 47.1 °F 42.6 °F 30.3 in Calm     84% 0 in 0 W/m2
06:55 47.1 °F 42.8 °F 30.3 in Calm     85% 0 in 0 W/m2
07:00 46.9 °F 42.6 °F 30.3 in Calm     85% 0 in 5 W/m2
07:06 46.8 °F 42.4 °F 30.3 in Calm     85% 0 in 9 W/m2
07:11 46.8 °F 42.8 °F 30.3 in Calm     86% 0 in 12 W/m2
07:16 46.6 °F 42.6 °F 30.3 in Calm     86% 0 in 14 W/m2
07:21 46.6 °F 42.6 °F 30.3 in Calm     86% 0 in 18 W/m2
07:26 46.4 °F 42.4 °F 30.3 in Calm     86% 0 in 21 W/m2
07:31 46.2 °F 42.3 °F 30.3 in Calm     86% 0 in 25 W/m2
07:36 46.2 °F 42.6 °F 30.3 in Calm     87% 0 in 26 W/m2
07:41 46.2 °F 42.6 °F 30.3 in Calm     87% 0 in 30 W/m2
07:46 46.6 °F 43.2 °F 30.3 in Calm     88% 0 in 33 W/m2
07:51 46.9 °F 43.5 °F 30.3 in Calm     88% 0 in 35 W/m2
07:56 47.1 °F 43.7 °F 30.3 in Calm     88% 0 in 39 W/m2
08:01 47.5 °F 43.9 °F 30.3 in Calm     87% 0 in 40 W/m2
08:06 47.8 °F 44.2 °F 30.3 in ESE 2 mph 2 mph 87% 0 in 77 W/m2
08:11 48.6 °F 44.2 °F 30.3 in East 2 mph 3 mph 85% 0 in 123 W/m2
08:16 49.3 °F 44.4 °F 30.3 in East 2 mph 3 mph 83% 0 in 135 W/m2
08:21 49.6 °F 44.4 °F 30.3 in East 2 mph 2 mph 82% 0 in 148 W/m2
08:26 50.4 °F 44.4 °F 30.3 in East 0.9 mph 2 mph 80% 0 in 162 W/m2
08:31 50.7 °F 44.4 °F 30.3 in Calm     79% 0 in 174 W/m2
08:36 51.1 °F 44.8 °F 30.3 in Calm   2 mph 79% 0 in 185 W/m2
08:41 51.6 °F 45 °F 30.3 in Calm     78% 0 in 200 W/m2
08:46 52.2 °F 45.1 °F 30.3 in Calm     77% 0 in 213 W/m2
08:51 52.5 °F 45.1 °F 30.3 in East 0.9 mph 1 mph 76% 0 in 225 W/m2
08:56 53.1 °F 45.3 °F 30.3 in Calm   1 mph 75% 0 in 237 W/m2
09:01 53.4 °F 45.3 °F 30.3 in Calm     74% 0 in 251 W/m2
09:06 54 °F 45.5 °F 30.3 in Calm     73% 0 in 264 W/m2
09:11 54.5 °F 46 °F 30.3 in Calm     73% 0 in 278 W/m2
09:16 54.9 °F 46.4 °F 30.3 in Calm     73% 0 in 290 W/m2
09:21 55.6 °F 46.4 °F 30.3 in East 0.9 mph 2 mph 71% 0 in 302 W/m2
09:26 56.1 °F 46 °F 30.3 in Calm   2 mph 69% 0 in 316 W/m2
09:31 56.7 °F 46.6 °F 30.3 in East 0.9 mph 2 mph 69% 0 in 329 W/m2
09:36 57 °F 45.9 °F 30.3 in East 0.9 mph 3 mph 66% 0 in 111 W/m2
09:41 57.6 °F 45.9 °F 30.3 in Calm   2 mph 65% 0 in 116 W/m2
09:46 58.5 °F 46.8 °F 30.3 in Calm   2 mph 65% 0 in 364 W/m2
09:51 59.2 °F 46.9 °F 30.3 in Calm   2 mph 64% 0 in 378 W/m2
09:56 59.5 °F 46.9 °F 30.3 in ESE 2.9 mph 4 mph 63% 0 in 390 W/m2
10:01 60.3 °F 47.1 °F 30.3 in ENE 0.9 mph 3 mph 62% 0 in 401 W/m2
10:06 60.6 °F 47.5 °F 30.3 in ENE 2 mph 4 mph 62% 0 in 413 W/m2
10:11 61 °F 46.9 °F 30.3 in Calm   3 mph 60% 0 in 424 W/m2
10:16 60.6 °F 46.6 °F 30.3 in ENE 2 mph 3 mph 60% 0 in 434 W/m2
10:21 60.8 °F 47.3 °F 30.3 in ENE 0.9 mph 2 mph 61% 0 in 445 W/m2
10:26 61.3 °F 47.3 °F 30.3 in ESE 2 mph 3 mph 60% 0 in 459 W/m2
10:31 62.1 °F 47.5 °F 30.3 in ENE 2 mph 4 mph 59% 0 in 469 W/m2
10:37 62.4 °F 46.9 °F 30.3 in Calm   3 mph 57% 0 in 478 W/m2
10:42 63 °F 46.6 °F 30.3 in NE 2.9 mph 6 mph 55% 0 in 492 W/m2
10:47 63 °F 46.9 °F 30.3 in East 2.9 mph 4 mph 56% 0 in 499 W/m2
10:52 63.3 °F 47.3 °F 30.3 in ESE 0.9 mph 3 mph 56% 0 in 508 W/m2
10:57 63.9 °F 47.3 °F 30.3 in East 4 mph 4 mph 55% 0 in 519 W/m2
11:02 64 °F 47.5 °F 30.3 in SE 2.9 mph 6 mph 55% 0 in 529 W/m2
11:07 64.4 °F 47.8 °F 30.3 in ENE 0.9 mph 4 mph 55% 0 in 538 W/m2
11:12 64.9 °F 47.5 °F 30.3 in ENE 4 mph 4 mph 53% 0 in 547 W/m2
11:17 64.9 °F 46.9 °F 30.3 in East 2 mph 4 mph 52% 0 in 555 W/m2
11:22 65.5 °F 47.8 °F 30.3 in SE 0.9 mph 4 mph 53% 0 in 564 W/m2
11:27 65.7 °F 47.1 °F 30.3 in ENE 2.9 mph 5 mph 51% 0 in 573 W/m2
11:32 65.7 °F 47.1 °F 30.3 in NE 2 mph 4 mph 51% 0 in 580 W/m2
11:37 65.8 °F 46.8 °F 30.3 in NNE 2 mph 4 mph 50% 0 in 589 W/m2
11:42 66 °F 47.3 °F 30.3 in ENE 4.9 mph 5 mph 51% 0 in 594 W/m2
11:47 66 °F 47.3 °F 30.3 in ESE 2.9 mph 4 mph 51% 0 in 601 W/m2
11:52 66.7 °F 47.5 °F 30.3 in East 2 mph 4 mph 50% 0 in 608 W/m2
11:57 67.5 °F 48.2 °F 30.2 in East 2 mph 4 mph 50% 0 in 615 W/m2
12:02 67.5 °F 48.2 °F 30.2 in Calm   2 mph 50% 0 in 621 W/m2
12:07 67.6 °F 47.8 °F 30.2 in SE 2 mph 3 mph 49% 0 in 626 W/m2
12:12 68.2 °F 47.7 °F 30.2 in ESE 4 mph 6 mph 48% 0 in 636 W/m2
12:17 68.4 °F 47.3 °F 30.2 in ESE 0.9 mph 5 mph 47% 0 in 638 W/m2
12:22 68.5 °F 48 °F 30.2 in ESE 0.9 mph 7 mph 48% 0 in 647 W/m2
12:27 69.3 °F 48.2 °F 30.2 in ESE 0.9 mph 4 mph 47% 0 in 650 W/m2
12:32 69.4 °F 47.8 °F 30.2 in ENE 7 mph 7 mph 46% 0 in 650 W/m2
12:38 70 °F 48.2 °F 30.2 in East 2 mph 5 mph 46% 0 in 659 W/m2
12:43 70 °F 47.7 °F 30.2 in NNE 4 mph 7 mph 45% 0 in 661 W/m2
12:48 70 °F 46.4 °F 30.2 in NNE 2 mph 6 mph 43% 0 in 664 W/m2
12:53 70 °F 47.1 °F 30.2 in NE 2 mph 3 mph 44% 0 in 670 W/m2
12:58 70.2 °F 45.3 °F 30.2 in ESE 2 mph 6 mph 41% 0 in 670 W/m2
13:03 70.5 °F 45.7 °F 30.2 in ENE 2.9 mph 4 mph 41% 0 in 675 W/m2
13:08 70.9 °F 47.3 °F 30.2 in ESE 2.9 mph 3 mph 43% 0 in 673 W/m2
13:13 71.2 °F 45.7 °F 30.2 in ESE 2 mph 3 mph 40% 0 in 679 W/m2
13:18 71.8 °F 45.5 °F 30.2 in East 2.9 mph 5 mph 39% 0 in 677 W/m2
13:23 72 °F 43.5 °F 30.2 in ESE 0.9 mph 3 mph 36% 0 in 680 W/m2
13:28 72.1 °F 43.7 °F 30.2 in ENE 2.9 mph 7 mph 36% 0 in 684 W/m2
13:33 72.5 °F 43.3 °F 30.2 in SE 0.9 mph 1 mph 35% 0 in 682 W/m2
13:38 73 °F 42.3 °F 30.2 in ESE 2.9 mph 7 mph 33% 0 in 684 W/m2
13:43 73.6 °F 40.3 °F 30.2 in East 2 mph 2 mph 30% 0 in 687 W/m2
13:48 73.4 °F 41.7 °F 30.2 in ENE 2 mph 6 mph 32% 0 in 680 W/m2
13:53 73 °F 40.6 °F 30.2 in ENE 2.9 mph 5 mph 31% 0 in 686 W/m2
13:58 73 °F 38.8 °F 30.2 in Calm   6 mph 29% 0 in 682 W/m2
14:03 73 °F 39.7 °F 30.2 in NE 0.9 mph 6 mph 30% 0 in 680 W/m2
14:08 73.4 °F 40.1 °F 30.2 in WNW 2.9 mph 4 mph 30% 0 in 679 W/m2
14:13 73.2 °F 38.1 °F 30.2 in SE 2.9 mph 7 mph 28% 0 in 671 W/m2
14:18 73.2 °F 39.9 °F 30.2 in East 4 mph 4 mph 30% 0 in 670 W/m2
14:23 73.4 °F 40.1 °F 30.2 in ENE 0.9 mph 4 mph 30% 0 in 664 W/m2
14:28 73.8 °F 41.2 °F 30.2 in NE 4 mph 5 mph 31% 0 in 664 W/m2
14:33 73.8 °F 41.2 °F 30.2 in ESE 4 mph 4 mph 31% 0 in 661 W/m2
14:38 73.8 °F 40.5 °F 30.2 in South 2 mph 3 mph 30% 0 in 654 W/m2
14:43 73.8 °F 40.5 °F 30.2 in East 0.9 mph 3 mph 30% 0 in 649 W/m2
14:48 73.8 °F 40.5 °F 30.2 in West 0.9 mph 4 mph 30% 0 in 647 W/m2
14:53 73.8 °F 42.1 °F 30.2 in ENE 4 mph 6 mph 32% 0 in 638 W/m2
14:58 73.6 °F 41 °F 30.2 in NNE 2.9 mph 5 mph 31% 0 in 629 W/m2
15:03 73 °F 40.6 °F 30.2 in Calm   2 mph 31% 0 in 624 W/m2
15:08 73.2 °F 40.8 °F 30.2 in West 2.9 mph 4 mph 31% 0 in 613 W/m2
15:13 73.2 °F 42.4 °F 30.2 in East 4 mph 5 mph 33% 0 in 613 W/m2
15:18 73.8 °F 41.2 °F 30.2 in South 0.9 mph 2 mph 31% 0 in 612 W/m2
15:23 73.9 °F 40.5 °F 30.2 in NNW 2 mph 7 mph 30% 0 in 601 W/m2
15:28 73.9 °F 41.4 °F 30.2 in ESE 2.9 mph 4 mph 31% 0 in 594 W/m2
15:33 74.3 °F 41.7 °F 30.2 in NE 2 mph 4 mph 31% 0 in 591 W/m2
15:38 74.5 °F 40.1 °F 30.2 in Calm   2 mph 29% 0 in 585 W/m2
15:43 74.7 °F 41.2 °F 30.2 in ENE 2 mph 4 mph 30% 0 in 578 W/m2
15:48 74.7 °F 40.3 °F 30.2 in East 0.9 mph 4 mph 29% 0 in 568 W/m2
15:53 74.5 °F 40.1 °F 30.2 in NW 2 mph 4 mph 29% 0 in 559 W/m2
15:58 74.7 °F 42.8 °F 30.2 in East 2 mph 2 mph 32% 0 in 548 W/m2
16:03 74.8 °F 40.5 °F 30.2 in ESE 0.9 mph 3 mph 29% 0 in 540 W/m2
16:08 74.8 °F 40.5 °F 30.2 in ENE 2 mph 9 mph 29% 0 in 533 W/m2
16:13 74.8 °F 42.3 °F 30.2 in North 2.9 mph 3 mph 31% 0 in 517 W/m2
16:18 75.2 °F 39.9 °F 30.2 in East 2 mph 9 mph 28% 0 in 506 W/m2
16:23 75.2 °F 41.7 °F 30.2 in Calm   1 mph 30% 0 in 497 W/m2
16:28 75.4 °F 43.5 °F 30.2 in North 0.9 mph 6 mph 32% 0 in 475 W/m2
16:33 75.7 °F 42.1 °F 30.2 in SE 4 mph 4 mph 30% 0 in 468 W/m2
16:38 75.7 °F 41.2 °F 30.2 in East 2 mph 5 mph 29% 0 in 459 W/m2
16:43 75.4 °F 40.1 °F 30.2 in East 2.9 mph 5 mph 28% 0 in 448 W/m2
16:48 74.8 °F 40.5 °F 30.2 in ENE 0.9 mph 2 mph 29% 0 in 436 W/m2
16:54 75 °F 39.7 °F 30.2 in Calm   2 mph 28% 0 in 432 W/m2
16:59 75.6 °F 41 °F 30.2 in ENE 2 mph 5 mph 29% 0 in 417 W/m2
17:04 75.6 °F 40.1 °F 30.2 in West 2 mph 7 mph 28% 0 in 411 W/m2
17:09 75.4 °F 39 °F 30.2 in North 0.9 mph 3 mph 27% 0 in 399 W/m2
17:14 75 °F 39.7 °F 30.2 in ESE 2.9 mph 5 mph 28% 0 in 374 W/m2
17:19 74.8 °F 40.5 °F 30.2 in ESE 2 mph 4 mph 29% 0 in 369 W/m2
17:24 75 °F 40.6 °F 30.2 in ESE 2 mph 4 mph 29% 0 in 360 W/m2
17:29 75 °F 40.6 °F 30.2 in Calm   2 mph 29% 0 in 350 W/m2
17:34 75.6 °F 40.1 °F 30.2 in Calm   1 mph 28% 0 in 341 W/m2
17:39 75.9 °F 40.5 °F 30.2 in West 2 mph 2 mph 28% 0 in 334 W/m2
17:44 75.9 °F 39.6 °F 30.2 in NE 0.9 mph 1 mph 27% 0 in 306 W/m2
17:49 75.7 °F 39.4 °F 30.2 in Calm   1 mph 27% 0 in 301 W/m2
17:54 75.7 °F 41.2 °F 30.2 in Calm   3 mph 29% 0 in 290 W/m2
17:59 75.7 °F 39.4 °F 30.2 in East 0.9 mph 2 mph 27% 0 in 79 W/m2
18:04 75.6 °F 41 °F 30.2 in SSE 0.9 mph 2 mph 29% 0 in 255 W/m2
18:09 75.2 °F 40.8 °F 30.2 in East 0.9 mph 3 mph 29% 0 in 255 W/m2
18:14 75 °F 39.7 °F 30.2 in NE 2.9 mph 4 mph 28% 0 in 246 W/m2
18:19 75 °F 39.7 °F 30.2 in North 2 mph 2 mph 28% 0 in 236 W/m2
18:24 75.4 °F 40.1 °F 30.2 in NNW 0.9 mph 4 mph 28% 0 in 216 W/m2
18:29 75.2 °F 39.9 °F 30.2 in NE 0.9 mph 4 mph 28% 0 in 204 W/m2
18:34 75.2 °F 38.8 °F 30.2 in NE 0.9 mph 2 mph 27% 0 in 190 W/m2
18:39 75.4 °F 40.1 °F 30.2 in NNW 0.9 mph 3 mph 28% 0 in 171 W/m2
18:44 75.4 °F 40.1 °F 30.2 in Calm   2 mph 28% 0 in 158 W/m2
18:49 75.2 °F 38.8 °F 30.2 in NNW 0.9 mph 2 mph 27% 0 in 144 W/m2
18:55 75.2 °F 39.9 °F 30.2 in NE 0.9 mph 2 mph 28% 0 in 127 W/m2
19:00 75.2 °F 39.9 °F 30.2 in SW 0.9 mph 3 mph 28% 0 in 113 W/m2
19:05 75 °F 38.8 °F 30.2 in NW 2 mph 3 mph 27% 0 in 100 W/m2
Juneau County Weather
Compliments of Weather Underground - 4 mb